Airfield :
LOGIN :

Register | Disclaimer

   EN    FR    IT 

 










Legend :    VFR   Marginal VFR   IFR   Intensive IFR   Very Intensive IFR
Visi :
Ceiling :
>= 8 km
>= 3000ft
5 to 8 km
1000 to 3000 ft
1500m to 5 km
500 to 1000 ft
800 to 1500m
200 to 500 ft
< 800m
< 200 ft
Symbols :   Thunderstorms  Fog  Heavy snow  Heavy precipitations  Wind > 20 kt
SIGMETs :     Misc.  Thunderstorms  Icing  Turbulence  Mountain Waves  Volcanic Ashes






- Airport Elevation : 3125 ft
- IATA code : ESB


LTAC - Ankara Esenboga

CURRENT METAR :
  • 180650Z VRB02KT CAVOK 22/04 Q1018 NOSIG RMK RWY21L 22003KT 120V270 RWY03L VRB02KT RWY21R 24003KT 200V270

EXPIRED METARs :
  • 180620Z VRB02KT CAVOK 19/04 Q1018 NOSIG
  • 180550Z VRB02KT CAVOK 18/04 Q1018 NOSIG RMK RWY21L 00000KT RWY03L 00000KT RWY21R 00000KT
  • 180520Z VRB02KT CAVOK 16/03 Q1018 NOSIG RMK RWY21L VRB01KT RWY03L VRB01KT RWY21R 00000KT
  • 180450Z VRB02KT CAVOK 15/02 Q1018 NOSIG RMK RWY21L 14002KT RWY03L 00000KT RWY21R VRB01KT
  • 180420Z 15003KT CAVOK 13/01 Q1018 NOSIG RMK RWY21L VRB01KT RWY03L 16002KT RWY21R VRB01KT

TAF TAF LTAC
Valid from the 18 at 06:00 until the 19 at 06:00 UTC


180440Z 1806/1906 VRB02KT CAVOK
BECMG 1806/1808 SCT040
BECMG 1809/1811 30015KT
BECMG 1817/1819 VRB02KT CAVOK



MET'MAP, your aeronautical weather chart ! - Copyright ORBIFLY December 2007 - Disclaimer

ORBIFLY MET'MAP TEAM :

Programming & Development : Alexandra Zaïnal
Concept & original design : Baudouin d'Aumeries
Assistance for programming : Marc-Olivier Méhu
Technical & hardware support : Manuel Goepfert

Contact : metmap@orbifly.com




SOURCES & CREDITS :

   NOAA